Wetterdaten: Oktober 2010
Datum Temp Feuchte Luftdruck Regen Wind Richtung Sonnenschein UV Solar Windben
01.10.2010 10,4 C 95 % 1013,8 hPa 1,2 l/m 4,7 km/h S-SO 0,33 h 1,1 UV-I 110 W/m 11,7 km/h
02.10.2010 11,8 C 95 % 1012,3 hPa 1,4 l/m 11,2 km/h S-SO 0,08 h 1,0 UV-I 98 W/m 20,1 km/h
03.10.2010 15,8 C 86 % 1007,6 hPa 0,6 l/m 8,4 km/h SO 3,83 h 1,4 UV-I 201 W/m 20,9 km/h
04.10.2010 14,1 C 86 % 1003,4 hPa 0,0 l/m 7,0 km/h S-SO 7,08 h 1,6 UV-I 240 W/m 17,3 km/h
05.10.2010 14,3 C 90 % 1007,1 hPa 0,0 l/m 3,0 km/h S 3,50 h 1,6 UV-I 184 W/m 6,8 km/h
06.10.2010 14,8 C 89 % 1013,3 hPa 0,0 l/m 7,7 km/h S-SO 2,00 h 1,4 UV-I 166 W/m 11,7 km/h
07.10.2010 14,1 C 95 % 1020,9 hPa 0,0 l/m 1,3 km/h O 0,25 h 1,1 UV-I 127 W/m 5,6 km/h
08.10.2010 13,1 C 85 % 1020,0 hPa 0,0 l/m 5,4 km/h SO 3,83 h 1,2 UV-I 169 W/m 12,1 km/h
09.10.2010 11,6 C 72 % 1018,6 hPa 0,0 l/m 4,8 km/h SO 5,67 h 1,7 UV-I 249 W/m 14,9 km/h
10.10.2010 10,0 C 69 % 1015,9 hPa 0,0 l/m 2,4 km/h O 6,75 h 1,6 UV-I 262 W/m 10,9 km/h
11.10.2010 8,3 C 75 % 1017,3 hPa 0,0 l/m 2,6 km/h N-NO 6,67 h 1,6 UV-I 257 W/m 8,8 km/h
12.10.2010 4,7 C 91 % 1018,1 hPa 0,0 l/m 1,3 km/h N-NO 3,75 h 1,2 UV-I 192 W/m 4,8 km/h
13.10.2010 5,1 C 87 % 1017,5 hPa 0,0 l/m 0,9 km/h SO 5,25 h 1,4 UV-I 225 W/m 4,0 km/h
14.10.2010 5,1 C 96 % 1016,7 hPa 1,6 l/m 0,6 km/h N-NW 0,00 h 0,8 UV-I 75 W/m 2,8 km/h
15.10.2010 8,5 C 95 % 1011,5 hPa 5,8 l/m 6,0 km/h N-NW 0,17 h 0,9 UV-I 79 W/m 12,1 km/h
16.10.2010 4,8 C 96 % 1013,1 hPa 7,0 l/m 8,7 km/h N-NO 0,00 h 0,6 UV-I 44 W/m 16,9 km/h
17.10.2010 3,8 C 94 % 1022,3 hPa 0,0 l/m 2,4 km/h N-NO 0,00 h 0,6 UV-I 46 W/m 5,6 km/h
18.10.2010 2,4 C 93 % 1019,3 hPa 0,2 l/m 5,3 km/h S 0,67 h 1,0 UV-I 105 W/m 8,5 km/h
19.10.2010 6,4 C 94 % 1004,4 hPa 2,4 l/m 5,6 km/h S 0,58 h 0,9 UV-I 79 W/m 14,9 km/h
20.10.2010 4,5 C 91 % 1009,8 hPa 5,0 l/m 9,9 km/h NW 1,08 h 0,8 UV-I 100 W/m 22,9 km/h
21.10.2010 3,6 C 83 % 1020,6 hPa 0,2 l/m 10,2 km/h S-SW 0,58 h 0,6 UV-I 71 W/m 23,3 km/h
22.10.2010 5,1 C 86 % 1018,2 hPa 0,0 l/m 5,0 km/h S 1,25 h 1,0 UV-I 133 W/m 10,1 km/h
23.10.2010 5,1 C 86 % 1005,8 hPa 1,4 l/m 12,2 km/h S 1,83 h 0,9 UV-I 131 W/m 21,7 km/h
24.10.2010 4,6 C 91 % 1008,6 hPa 3,4 l/m 5,6 km/h S 0,83 h 0,6 UV-I 75 W/m 15,3 km/h
25.10.2010 3,7 C 93 % 1022,9 hPa 0,0 l/m 1,2 km/h N-NW 2,33 h 0,8 UV-I 128 W/m 3,6 km/h
26.10.2010 5,4 C 89 % 1027,6 hPa 0,0 l/m 3,8 km/h S 3,67 h 0,9 UV-I 146 W/m 8,4 km/h
27.10.2010 6,7 C 88 % 1021,8 hPa 0,8 l/m 6,1 km/h S 0,25 h 0,6 UV-I 62 W/m 12,5 km/h
28.10.2010 9,1 C 89 % 1019,1 hPa 0,6 l/m 6,8 km/h S 2,67 h 0,9 UV-I 101 W/m 15,7 km/h
29.10.2010 9,4 C 80 % 1009,2 hPa 0,2 l/m 14,5 km/h S-SO 5,08 h 1,0 UV-I 168 W/m 27,0 km/h
30.10.2010 10,6 C 86 % 1004,2 hPa 0,0 l/m 4,0 km/h S 0,33 h 0,8 UV-I 71 W/m 9,7 km/h
31.10.2010 7,7 C 92 % 1003,9 hPa 1,8 l/m 1,1 km/h SO 2,50 h 0,8 UV-I 111 W/m 5,2 km/h
Min-Datum 18.10.10 10.10.10 24.10.10 16 Tage 01.10.10 - - - - 01.10.10
Min-Zeit 06:55 15:35 02:00 - 08:25 - - - - 08:25
Minimum -1,5 C 43 % 1000,3 hPa - 0,0 km/h - - - - 0,0 km/h
Max-Datum 03.10.10 20.10.10 26.10.10 16.10.10 29.10.10 - 04.10.10 06.10.10 05.10.10 24.10.10
Max-Zeit 16:35 02:25 12:05 00:05 13:15 - 18:40 13:30 12:00 08:15
Maximum 19,8 C 100 % 1029,0 hPa 7,0 l/m 25,1 km/h
S-SO
- 7,00 h 3,1 UV-I 640 W/m 48,3 km/h
W
Durchschnitt 8,2 C 88 % 1014,3 hPa #33,6 l/m 5,5 km/h S #72:50 h 1,0 UV-I 136 W/m 12,4 km/h

Durchschnitt Minimum Temp.5,1 C
Durchschnitt Maximum Temp.11,9 C